Time;durP1;ratioP1;P1;durP2;ratioP2;P2;SDS_P1;SDS_P2;PMS_P1;PMS_P2;Temp;Humidity;BMP_temperature;BMP_pressure;BME280_temperature;BME280_humidity;BME280_pressure;Samples;Min_cycle;Max_cycle;Signal;HPM_P1;HPM_P2
2024/01/24 00:00:23;;;;;;;7.85;2.00;;;15.50;77.00;;;;;;4204584;28;20585;-51
2024/01/24 00:03:04;;;;;;;4.47;1.15;;;15.60;77.00;;;;;;4203971;28;20584;-51
2024/01/24 00:05:45;;;;;;;4.93;1.40;;;15.60;77.00;;;;;;4203835;28;20059;-49
2024/01/24 00:08:26;;;;;;;3.40;1.17;;;15.70;76.90;;;;;;4204094;28;20201;-62
2024/01/24 00:11:07;;;;;;;4.13;1.02;;;15.70;76.80;;;;;;4203951;28;20108;-61
2024/01/24 00:13:49;;;;;;;4.30;1.42;;;15.80;76.70;;;;;;4204305;28;20532;-51
2024/01/24 00:16:31;;;;;;;8.57;1.60;;;15.80;76.60;;;;;;4202955;28;20110;-52
2024/01/24 00:19:13;;;;;;;3.38;1.17;;;15.80;76.50;;;;;;4203963;28;20059;-48
2024/01/24 00:21:54;;;;;;;6.85;2.03;;;15.90;76.60;;;;;;4204167;28;20218;-51
2024/01/24 00:24:35;;;;;;;6.18;1.67;;;15.90;76.60;;;;;;4203880;28;20051;-51
2024/01/24 00:27:16;;;;;;;6.55;1.23;;;15.90;76.60;;;;;;4202690;28;20641;-50
2024/01/24 00:29:57;;;;;;;4.97;1.33;;;15.80;76.60;;;;;;4203977;28;20051;-51
2024/01/24 00:32:39;;;;;;;3.20;1.33;;;15.80;76.80;;;;;;4203880;28;20067;-61
2024/01/24 00:35:20;;;;;;;8.57;2.05;;;15.80;76.90;;;;;;4203575;28;20153;-61
2024/01/24 00:38:01;;;;;;;8.85;2.08;;;15.90;76.90;;;;;;4204168;28;20066;-62
2024/01/24 00:40:42;;;;;;;4.72;2.00;;;15.90;77.00;;;;;;4203481;28;20063;-61
2024/01/24 00:43:25;;;;;;;5.80;1.58;;;16.00;76.70;;;;;;4203822;28;20059;-62
2024/01/24 00:46:06;;;;;;;4.13;1.48;;;16.10;76.30;;;;;;4203861;28;20067;-51
2024/01/24 00:48:49;;;;;;;5.15;1.50;;;16.20;76.80;;;;;;4203715;28;20044;-51
2024/01/24 00:51:29;;;;;;;7.88;2.03;;;16.30;75.70;;;;;;4204240;28;20047;-61
2024/01/24 00:54:11;;;;;;;4.68;1.58;;;16.30;75.50;;;;;;4203256;28;20055;-62
2024/01/24 00:56:52;;;;;;;9.88;2.42;;;16.30;75.30;;;;;;4203621;28;20055;-62
2024/01/24 00:59:32;;;;;;;7.65;1.75;;;16.30;75.30;;;;;;4202475;28;20498;-62
2024/01/24 01:02:13;;;;;;;2.63;1.23;;;16.30;75.50;;;;;;4186793;28;20067;-50
2024/01/24 01:04:56;;;;;;;6.68;2.05;;;16.40;75.40;;;;;;4195223;27;20051;-49
2024/01/24 01:07:37;;;;;;;6.95;1.60;;;16.40;75.10;;;;;;4202947;27;20101;-49
2024/01/24 01:10:18;;;;;;;4.95;1.33;;;16.50;75.00;;;;;;4220360;27;20059;-50
2024/01/24 01:12:59;;;;;;;4.30;1.40;;;16.50;74.70;;;;;;4220409;27;20136;-50
2024/01/24 01:15:41;;;;;;;6.28;2.22;;;16.60;74.80;;;;;;4189624;28;20101;-52
2024/01/24 01:18:22;;;;;;;5.00;1.75;;;16.50;74.80;;;;;;4188614;28;20055;-51
2024/01/24 01:21:04;;;;;;;4.68;1.88;;;16.50;74.90;;;;;;4199364;27;20507;-52
2024/01/24 01:23:45;;;;;;;4.45;1.75;;;16.50;75.10;;;;;;4196350;27;20082;-52
2024/01/24 01:26:26;;;;;;;5.20;1.40;;;16.60;74.90;;;;;;4189638;28;20077;-51
2024/01/24 01:29:07;;;;;;;3.00;1.38;;;16.60;74.70;;;;;;4206436;28;20055;-52
2024/01/24 01:31:48;;;;;;;4.57;1.20;;;16.60;74.70;;;;;;4206643;28;20047;-49
2024/01/24 01:34:29;;;;;;;9.35;2.17;;;16.60;75.50;;;;;;4222471;27;20061;-51
2024/01/24 01:37:12;;;;;;;5.40;1.45;;;16.60;74.60;;;;;;4223576;27;20081;-49
2024/01/24 01:39:53;;;;;;;4.75;1.77;;;16.60;74.80;;;;;;4223440;27;20042;-49
2024/01/24 01:42:34;;;;;;;;;;;16.60;75.00;;;;;;4217170;27;20058;-51
2024/01/24 01:45:15;;;;;;;5.67;1.37;;;16.60;74.80;;;;;;4206829;27;19931;-51
2024/01/24 01:47:57;;;;;;;5.80;1.42;;;16.60;75.70;;;;;;4189747;28;20051;-50
2024/01/24 01:50:38;;;;;;;;;;;16.60;74.90;;;;;;4207340;28;20783;-52
2024/01/24 01:53:21;;;;;;;5.00;1.42;;;16.60;75.00;;;;;;4206408;28;19931;-51
2024/01/24 01:56:02;;;;;;;6.45;1.60;;;16.60;75.10;;;;;;4206428;28;20071;-61
2024/01/24 01:58:45;;;;;;;4.35;1.45;;;16.50;75.30;;;;;;4206421;28;20230;-61
2024/01/24 02:01:26;;;;;;;4.82;1.10;;;16.50;75.50;;;;;;4206171;28;20410;-61
2024/01/24 02:04:07;;;;;;;3.33;1.30;;;16.60;75.70;;;;;;4209236;28;20213;-62
2024/01/24 02:06:48;;;;;;;3.25;1.30;;;16.60;75.50;;;;;;4205855;28;20198;-62
2024/01/24 02:09:30;;;;;;;5.35;1.88;;;16.60;75.40;;;;;;4204455;28;20533;-62
2024/01/24 02:12:11;;;;;;;3.78;1.40;;;16.60;75.40;;;;;;4206006;28;20062;-62
2024/01/24 02:14:53;;;;;;;6.65;1.20;;;16.70;75.20;;;;;;4205307;28;20149;-62
2024/01/24 02:17:34;;;;;;;7.47;1.90;;;16.80;75.00;;;;;;4205524;28;20059;-62
2024/01/24 02:20:18;;;;;;;5.72;1.63;;;16.80;74.80;;;;;;4205783;28;20505;-61
2024/01/24 02:22:59;;;;;;;5.95;1.40;;;16.80;74.60;;;;;;4211405;28;20055;-62
2024/01/24 02:25:41;;;;;;;5.38;1.20;;;16.80;74.60;;;;;;4206674;27;20410;-62
2024/01/24 02:28:22;;;;;;;2.13;1.13;;;16.80;74.70;;;;;;4205956;28;20070;-63
2024/01/24 02:31:03;;;;;;;;;;;16.80;74.90;;;;;;4204350;27;20101;-62
2024/01/24 02:33:44;;;;;;;4.00;0.82;;;16.70;74.80;;;;;;4205176;27;19938;-62
2024/01/24 02:36:25;;;;;;;3.42;1.10;;;16.70;75.10;;;;;;4205179;27;20071;-63
2024/01/24 02:39:07;;;;;;;2.83;0.95;;;16.60;75.10;;;;;;4204737;28;20039;-63
2024/01/24 02:41:49;;;;;;;9.50;1.40;;;16.60;75.40;;;;;;4204871;28;20051;-63
2024/01/24 02:44:30;;;;;;;8.48;2.03;;;16.50;75.70;;;;;;4205228;27;20136;-62
2024/01/24 02:47:12;;;;;;;3.45;1.10;;;16.50;76.80;;;;;;4204074;28;20059;-62
2024/01/24 02:49:52;;;;;;;3.42;1.50;;;16.60;75.70;;;;;;4204988;28;20059;-62
2024/01/24 02:52:33;;;;;;;4.05;1.58;;;16.60;75.50;;;;;;4219502;27;20517;-62
2024/01/24 02:55:16;;;;;;;4.38;1.10;;;16.70;75.30;;;;;;4221279;27;20055;-63
2024/01/24 02:57:58;;;;;;;3.13;1.23;;;16.70;75.00;;;;;;4220943;27;20682;-63
2024/01/24 03:00:38;;;;;;;4.45;1.35;;;16.70;75.20;;;;;;4221217;27;20128;-61
2024/01/24 03:03:20;;;;;;;5.18;1.85;;;16.80;74.90;;;;;;4202947;28;20051;-62
2024/01/24 03:06:01;;;;;;;7.63;1.65;;;16.80;74.80;;;;;;4204880;28;20128;-62
2024/01/24 03:08:49;;;;;;;1.85;1.00;;;16.80;74.70;;;;;;4208855;27;20059;-63
2024/01/24 03:11:30;;;;;;;6.68;2.15;;;16.80;75.50;;;;;;4218269;27;20051;-60
2024/01/24 03:14:13;;;;;;;8.57;1.73;;;16.80;74.60;;;;;;4218133;27;20058;-61
2024/01/24 03:16:54;;;;;;;5.88;1.45;;;16.70;74.70;;;;;;4221453;27;20070;-62
2024/01/24 03:19:35;;;;;;;5.53;1.73;;;16.70;74.80;;;;;;4221508;27;20047;-62
2024/01/24 03:22:16;;;;;;;6.18;1.55;;;16.70;74.90;;;;;;4233324;27;20046;-62
2024/01/24 03:24:58;;;;;;;7.07;1.90;;;16.80;74.90;;;;;;4204866;28;20063;-62
2024/01/24 03:27:39;;;;;;;15.30;2.28;;;16.80;74.60;;;;;;4204946;27;20140;-62
2024/01/24 03:30:21;;;;;;;10.02;2.53;;;16.80;74.60;;;;;;4204734;27;20055;-62
2024/01/24 03:33:04;;;;;;;8.27;1.52;;;16.80;74.30;;;;;;4187618;27;20063;-63
2024/01/24 03:35:45;;;;;;;9.98;1.95;;;16.80;74.30;;;;;;4186793;28;20051;-62
2024/01/24 03:38:26;;;;;;;9.15;2.17;;;16.80;74.40;;;;;;4188948;27;20160;-62
2024/01/24 03:41:07;;;;;;;10.47;2.20;;;16.80;74.70;;;;;;4208334;27;20621;-62
2024/01/24 03:43:49;;;;;;;11.82;2.03;;;16.70;74.80;;;;;;4212540;27;20154;-61
2024/01/24 03:46:31;;;;;;;6.05;1.60;;;16.70;74.80;;;;;;4221019;27;20051;-62
2024/01/24 03:49:12;;;;;;;4.53;1.58;;;16.80;74.70;;;;;;4221328;27;20093;-50
2024/01/24 03:51:53;;;;;;;13.13;3.03;;;16.80;74.40;;;;;;4199844;28;20502;-49
2024/01/24 03:54:34;;;;;;;13.05;3.50;;;16.80;74.50;;;;;;4220481;27;20046;-52
2024/01/24 03:57:15;;;;;;;6.50;1.55;;;16.80;74.40;;;;;;4220107;27;20100;-50
2024/01/24 03:59:55;;;;;;;13.77;3.13;;;16.90;74.30;;;;;;4221584;27;20054;-52
2024/01/24 04:02:37;;;;;;;15.48;2.33;;;16.90;74.20;;;;;;4221109;27;20042;-51
2024/01/24 04:05:18;;;;;;;10.20;2.10;;;16.90;74.20;;;;;;4196441;27;20156;-48
2024/01/24 04:07:59;;;;;;;14.15;3.00;;;16.90;74.00;;;;;;4187461;28;20046;-50
2024/01/24 04:10:40;;;;;;;10.63;2.63;;;16.90;73.80;;;;;;4203505;27;20067;-50
2024/01/24 04:13:21;;;;;;;8.45;1.88;;;16.90;73.70;;;;;;4185908;28;20102;-49
2024/01/24 04:16:02;;;;;;;14.98;2.92;;;16.90;73.70;;;;;;4202228;28;20055;-48
2024/01/24 04:18:45;;;;;;;16.42;3.22;;;16.90;73.70;;;;;;4203324;28;20056;-51
2024/01/24 04:21:27;;;;;;;13.15;2.92;;;16.90;73.80;;;;;;4203717;27;20096;-52
2024/01/24 04:24:09;;;;;;;14.98;3.55;;;16.80;73.90;;;;;;4203359;28;20063;-52
2024/01/24 04:26:50;;;;;;;16.17;3.03;;;16.80;74.10;;;;;;4186464;28;20449;-52
2024/01/24 04:29:30;;;;;;;12.52;3.10;;;16.80;74.30;;;;;;4201217;28;20074;-52
2024/01/24 04:32:12;;;;;;;14.02;3.17;;;16.80;74.10;;;;;;4203940;28;20059;-49
2024/01/24 04:34:54;;;;;;;12.68;3.25;;;16.90;73.90;;;;;;4206824;27;20059;-63
2024/01/24 04:37:37;;;;;;;15.82;3.08;;;17.00;73.80;;;;;;4203826;28;20157;-62
2024/01/24 04:40:18;;;;;;;16.02;3.80;;;17.00;73.40;;;;;;4204018;27;20055;-61
2024/01/24 04:42:59;;;;;;;12.85;2.70;;;17.00;73.30;;;;;;4203450;28;20078;-62
2024/01/24 04:45:40;;;;;;;14.10;3.30;;;17.00;73.10;;;;;;4214406;27;20041;-61
2024/01/24 04:48:21;;;;;;;13.02;2.40;;;17.00;73.10;;;;;;4223340;27;20055;-62
2024/01/24 04:51:04;;;;;;;17.02;3.95;;;17.00;73.00;;;;;;4223658;27;20541;-62
2024/01/24 04:53:45;;;;;;;15.52;4.18;;;17.00;73.10;;;;;;4210711;27;20545;-62
2024/01/24 04:56:26;;;;;;;15.57;3.55;;;16.90;73.30;;;;;;4203563;27;20108;-48
2024/01/24 04:59:07;;;;;;;7.43;2.40;;;16.80;73.40;;;;;;4207790;27;20063;-51
2024/01/24 05:01:48;;;;;;;14.45;3.63;;;16.90;73.60;;;;;;4189756;28;20050;-50
2024/01/24 05:04:29;;;;;;;17.95;3.75;;;16.90;73.40;;;;;;4203400;28;20051;-53
2024/01/24 05:07:11;;;;;;;16.20;4.13;;;16.90;73.30;;;;;;4223201;27;20099;-49
2024/01/24 05:09:52;;;;;;;14.80;4.15;;;16.90;73.10;;;;;;4222295;27;20505;-48
2024/01/24 05:12:33;;;;;;;18.10;3.95;;;16.90;73.20;;;;;;4221371;27;20092;-48
2024/01/24 05:15:14;;;;;;;21.17;4.72;;;16.80;73.30;;;;;;4189509;28;20056;-49
2024/01/24 05:17:56;;;;;;;14.60;3.67;;;16.80;73.20;;;;;;4193760;28;20052;-52
2024/01/24 05:20:37;;;;;;;15.30;3.83;;;16.80;73.40;;;;;;4193655;28;20124;-52
2024/01/24 05:23:19;;;;;;;21.65;3.65;;;16.90;73.10;;;;;;4207861;28;20047;-50
2024/01/24 05:26:01;;;;;;;18.52;3.90;;;16.90;72.80;;;;;;4223516;27;20062;-51
2024/01/24 05:28:42;;;;;;;24.35;5.32;;;17.00;72.60;;;;;;4217422;27;20413;-47
2024/01/24 05:31:23;;;;;;;20.38;3.80;;;17.00;72.50;;;;;;4233084;27;20091;-48
2024/01/24 05:34:04;;;;;;;18.02;3.67;;;17.00;73.30;;;;;;4214441;27;20055;-50
2024/01/24 05:36:45;;;;;;;19.27;3.15;;;17.00;72.30;;;;;;4206794;28;20077;-49
2024/01/24 05:39:27;;;;;;;23.35;4.90;;;17.00;72.40;;;;;;4206207;28;20407;-49
2024/01/24 05:42:08;;;;;;;15.98;4.22;;;16.90;72.40;;;;;;4205950;28;20071;-52
2024/01/24 05:44:49;;;;;;;22.67;4.75;;;16.90;72.50;;;;;;4216607;27;20097;-49
2024/01/24 05:47:30;;;;;;;17.40;3.47;;;16.90;72.50;;;;;;4206414;28;20668;-49
2024/01/24 05:50:12;;;;;;;17.23;3.50;;;17.00;72.40;;;;;;4206227;28;20058;-49
2024/01/24 05:52:54;;;;;;;21.73;5.30;;;17.00;71.80;;;;;;4206214;28;20074;-48
2024/01/24 05:55:37;;;;;;;16.23;3.10;;;17.00;72.00;;;;;;4216837;27;20047;-49
2024/01/24 05:58:19;;;;;;;24.45;5.57;;;16.90;71.80;;;;;;4222544;27;20050;-49
2024/01/24 06:01:00;;;;;;;10.23;3.08;;;16.90;71.70;;;;;;4222843;27;20096;-52
2024/01/24 06:03:41;;;;;;;22.60;5.32;;;16.90;71.90;;;;;;4221470;27;20104;-48
2024/01/24 06:06:23;;;;;;;22.30;5.13;;;16.90;71.60;;;;;;4205528;28;20096;-48
2024/01/24 06:09:04;;;;;;;27.85;6.00;;;17.00;71.70;;;;;;4205879;28;20055;-49
2024/01/24 06:11:48;;;;;;;14.98;3.35;;;17.00;71.20;;;;;;4204791;28;20051;-51
2024/01/24 06:14:29;;;;;;;21.48;4.80;;;17.10;71.20;;;;;;4214942;27;20054;-48
2024/01/24 06:17:10;;;;;;;24.17;6.85;;;17.00;71.20;;;;;;4205760;28;20063;-48
2024/01/24 06:19:52;;;;;;;19.08;4.45;;;17.00;71.00;;;;;;4205956;28;20051;-52
2024/01/24 06:22:33;;;;;;;18.60;3.47;;;17.00;71.30;;;;;;4212475;27;20100;-49
2024/01/24 06:25:14;;;;;;;27.58;5.15;;;17.00;71.50;;;;;;4205707;28;20102;-50
2024/01/24 06:27:57;;;;;;;28.15;5.75;;;17.00;71.30;;;;;;4205222;28;20102;-51
2024/01/24 06:30:38;;;;;;;22.30;3.72;;;17.00;71.20;;;;;;4205463;28;20498;-50
2024/01/24 06:33:19;;;;;;;20.13;5.55;;;17.00;70.70;;;;;;4205692;28;20055;-50
2024/01/24 06:36:00;;;;;;;25.73;5.03;;;17.10;70.60;;;;;;4207883;28;20058;-51
2024/01/24 06:38:41;;;;;;;21.70;5.25;;;17.00;70.70;;;;;;4204666;28;20186;-51
2024/01/24 06:41:25;;;;;;;32.45;5.60;;;17.00;71.10;;;;;;4205210;28;20092;-49
2024/01/24 06:44:07;;;;;;;28.27;5.38;;;17.10;71.00;;;;;;4205467;28;20096;-49
2024/01/24 06:46:48;;;;;;;23.10;4.95;;;17.10;70.80;;;;;;4204807;28;20502;-50
2024/01/24 06:49:29;;;;;;;25.33;4.95;;;17.10;70.50;;;;;;4205057;28;20055;-48
2024/01/24 06:52:10;;;;;;;23.75;6.03;;;17.10;70.30;;;;;;4205471;28;20383;-48
2024/01/24 06:54:51;;;;;;;26.38;5.55;;;17.20;70.40;;;;;;4209144;27;20535;-49
2024/01/24 06:57:31;;;;;;;41.78;7.88;;;17.20;70.30;;;;;;4223666;27;20050;-49
2024/01/24 07:00:15;;;;;;;36.95;5.93;;;17.20;70.30;;;;;;4239445;27;20054;-51
2024/01/24 07:02:56;;;;;;;25.23;5.65;;;17.10;69.80;;;;;;4188628;28;20145;-61
2024/01/24 07:05:37;;;;;;;31.90;5.97;;;17.10;70.20;;;;;;4187697;28;20056;-62
2024/01/24 07:08:18;;;;;;;18.58;5.35;;;17.00;70.20;;;;;;4209812;27;20054;-62
2024/01/24 07:11:01;;;;;;;25.17;5.70;;;17.00;70.60;;;;;;4207275;27;20051;-62
2024/01/24 07:13:42;;;;;;;17.67;4.28;;;17.00;70.50;;;;;;4205518;27;20051;-62
2024/01/24 07:16:24;;;;;;;28.48;4.57;;;17.10;70.00;;;;;;4186598;28;20534;-62
2024/01/24 07:19:06;;;;;;;15.63;4.25;;;17.10;69.60;;;;;;4188350;28;20055;-61
2024/01/24 07:21:48;;;;;;;21.23;5.10;;;17.10;69.80;;;;;;4204438;27;20168;-61
2024/01/24 07:24:28;;;;;;;;;;;17.10;70.50;;;;;;4206862;27;20140;-62
2024/01/24 07:27:09;;;;;;;17.48;5.25;;;17.10;70.70;;;;;;4203130;28;19969;-62
2024/01/24 07:29:50;;;;;;;23.60;5.15;;;17.10;69.40;;;;;;4205004;28;20051;-63
2024/01/24 07:32:32;;;;;;;22.80;5.05;;;17.00;68.50;;;;;;4204630;28;20050;-62
2024/01/24 07:35:13;;;;;;;31.73;6.65;;;17.00;68.40;;;;;;4195164;28;20047;-63
2024/01/24 07:37:54;;;;;;;26.38;5.00;;;17.00;69.10;;;;;;4190703;27;20070;-62
2024/01/24 07:40:37;;;;;;;21.73;4.07;;;16.90;69.00;;;;;;4204457;28;20563;-62
2024/01/24 07:43:17;;;;;;;21.55;5.25;;;16.80;69.40;;;;;;4204764;27;20128;-62
2024/01/24 07:45:58;;;;;;;21.00;4.47;;;16.80;69.60;;;;;;4210261;27;20051;-62
2024/01/24 07:48:42;;;;;;;29.27;5.68;;;16.80;69.90;;;;;;4203994;28;20067;-53
2024/01/24 07:51:23;;;;;;;26.45;6.43;;;16.80;69.90;;;;;;4202179;28;20051;-50
2024/01/24 07:54:04;;;;;;;16.85;4.97;;;16.70;70.00;;;;;;4202721;28;20395;-51
2024/01/24 07:56:45;;;;;;;24.80;4.93;;;16.70;69.90;;;;;;4205994;27;20055;-51
2024/01/24 07:59:26;;;;;;;19.80;4.63;;;16.70;69.60;;;;;;4221234;27;20468;-63
2024/01/24 08:02:07;;;;;;;19.88;4.25;;;16.60;69.30;;;;;;4220642;27;20059;-62
2024/01/24 08:04:50;;;;;;;28.30;6.05;;;16.60;69.70;;;;;;4215585;27;20047;-62
2024/01/24 08:07:33;;;;;;;24.60;5.75;;;16.50;69.30;;;;;;4209119;27;20059;-61
2024/01/24 08:10:15;;;;;;;20.05;4.45;;;16.60;69.70;;;;;;4206282;27;20541;-50
2024/01/24 08:12:56;;;;;;;22.63;5.70;;;16.60;69.00;;;;;;4206798;27;20410;-63
2024/01/24 08:15:37;;;;;;;14.68;4.10;;;16.60;69.20;;;;;;4224640;27;20158;-48
2024/01/24 08:18:18;;;;;;;23.02;4.70;;;16.70;68.90;;;;;;4228218;27;20043;-63
2024/01/24 08:21:01;;;;;;;28.23;4.53;;;16.70;68.40;;;;;;4238020;27;20058;-62
2024/01/24 08:23:43;;;;;;;21.20;4.60;;;16.70;68.20;;;;;;4215734;27;20061;-63
2024/01/24 08:26:28;;;;;;;17.40;5.07;;;16.70;68.30;;;;;;4187522;28;20059;-63
2024/01/24 08:29:09;;;;;;;15.20;3.58;;;16.70;68.40;;;;;;4217814;27;20157;-63
2024/01/24 08:31:56;;;;;;;33.00;5.88;;;16.60;68.10;;;;;;4231275;27;20058;-49
2024/01/24 08:34:37;;;;;;;15.10;4.45;;;16.60;68.40;;;;;;4232271;27;20185;-62
2024/01/24 08:37:20;;;;;;;24.95;5.15;;;16.60;68.10;;;;;;4220209;27;20050;-62
2024/01/24 08:40:02;;;;;;;22.38;4.65;;;16.60;68.00;;;;;;4221202;27;20440;-49
2024/01/24 08:42:44;;;;;;;;;;;16.60;69.10;;;;;;4219981;27;20051;-51
2024/01/24 08:45:25;;;;;;;20.40;4.35;;;16.60;68.40;;;;;;4210331;28;20089;-52
2024/01/24 08:48:07;;;;;;;22.70;4.45;;;16.60;68.30;;;;;;4204127;28;20388;-51
2024/01/24 08:50:48;;;;;;;16.70;5.22;;;16.60;68.10;;;;;;4205367;27;20051;-53
2024/01/24 08:53:30;;;;;;;22.50;5.05;;;16.60;68.20;;;;;;4203867;28;20519;-49
2024/01/24 08:56:11;;;;;;;18.95;4.05;;;16.60;68.10;;;;;;4219692;27;20058;-53
2024/01/24 08:58:53;;;;;;;16.17;4.25;;;16.60;67.50;;;;;;4217850;27;20513;-60
2024/01/24 09:01:34;;;;;;;20.65;5.13;;;16.60;67.90;;;;;;4219782;27;20406;-61
2024/01/24 09:04:15;;;;;;;22.40;4.75;;;16.60;68.50;;;;;;4217301;27;20104;-53
2024/01/24 09:06:56;;;;;;;14.60;4.85;;;16.70;68.00;;;;;;4215302;27;20050;-61
2024/01/24 09:09:38;;;;;;;21.60;5.68;;;16.70;67.70;;;;;;4216276;27;20055;-52
2024/01/24 09:12:22;;;;;;;22.00;4.50;;;16.80;67.30;;;;;;4203658;28;20136;-50
2024/01/24 09:15:04;;;;;;;;;;;16.80;66.60;;;;;;4211520;27;20171;-50
2024/01/24 09:17:45;;;;;;;20.40;4.68;;;16.80;66.70;;;;;;4220812;27;20290;-51
2024/01/24 09:20:26;;;;;;;21.70;4.65;;;16.80;66.70;;;;;;4209930;27;20055;-51
2024/01/24 09:23:07;;;;;;;21.00;4.65;;;16.80;66.60;;;;;;4205329;27;20419;-51
2024/01/24 09:25:49;;;;;;;28.77;5.43;;;16.80;66.10;;;;;;4206641;27;20096;-61
2024/01/24 09:28:30;;;;;;;28.65;5.43;;;16.70;67.00;;;;;;4217642;27;20059;-51
2024/01/24 09:31:11;;;;;;;20.52;4.85;;;16.70;66.30;;;;;;4220330;27;20067;-50
2024/01/24 09:33:52;;;;;;;26.30;5.70;;;16.60;66.60;;;;;;4188490;28;20131;-62
2024/01/24 09:36:33;;;;;;;23.08;4.55;;;16.60;66.20;;;;;;4200909;28;20051;-62
2024/01/24 09:39:14;;;;;;;21.90;4.70;;;16.60;66.50;;;;;;4206566;28;20051;-62
2024/01/24 09:41:57;;;;;;;18.70;5.28;;;16.60;66.80;;;;;;4205841;28;20047;-62
2024/01/24 09:44:38;;;;;;;22.58;5.63;;;16.50;67.00;;;;;;4208715;27;20058;-62
2024/01/24 09:47:22;;;;;;;20.02;4.65;;;16.40;67.10;;;;;;4205975;28;20055;-61
2024/01/24 09:50:04;;;;;;;18.83;4.75;;;16.40;67.00;;;;;;4206100;27;20058;-48
2024/01/24 09:52:46;;;;;;;20.73;5.13;;;16.40;67.10;;;;;;4204977;27;20141;-49
2024/01/24 09:55:28;;;;;;;30.20;4.97;;;16.40;67.10;;;;;;4213765;27;20095;-61
2024/01/24 09:58:11;;;;;;;20.80;4.68;;;16.30;67.10;;;;;;4223008;27;20050;-61
2024/01/24 10:00:54;;;;;;;22.60;5.53;;;16.30;66.80;;;;;;4222740;27;20210;-51
2024/01/24 10:03:35;;;;;;;24.67;5.50;;;16.40;66.50;;;;;;4206734;28;20452;-49
2024/01/24 10:06:17;;;;;;;22.88;5.68;;;16.40;66.30;;;;;;4207970;27;20124;-49
2024/01/24 10:08:58;;;;;;;24.55;5.90;;;16.40;66.40;;;;;;4222076;27;20055;-50
2024/01/24 10:11:39;;;;;;;22.70;4.93;;;16.40;66.40;;;;;;4222807;27;20051;-49
2024/01/24 10:14:23;;;;;;;19.40;4.40;;;16.40;66.40;;;;;;4220294;27;20051;-50
2024/01/24 10:17:06;;;;;;;17.45;4.20;;;16.40;66.50;;;;;;4205616;27;20433;-52
2024/01/24 10:19:48;;;;;;;25.58;5.10;;;16.40;67.00;;;;;;4206295;27;20391;-47
2024/01/24 10:22:29;;;;;;;23.30;4.80;;;16.40;67.30;;;;;;4213394;27;20136;-51
2024/01/24 10:25:10;;;;;;;25.48;4.72;;;16.40;67.70;;;;;;4205804;28;20063;-51
2024/01/24 10:27:52;;;;;;;26.77;5.10;;;16.40;68.30;;;;;;4217327;28;20050;-62
2024/01/24 10:30:35;;;;;;;23.67;4.65;;;16.30;68.40;;;;;;4221803;27;20062;-62
2024/01/24 10:33:16;;;;;;;18.83;4.40;;;16.30;68.70;;;;;;4222127;27;20092;-62
2024/01/24 10:36:00;;;;;;;20.42;4.60;;;16.30;69.00;;;;;;4221112;27;20570;-62
2024/01/24 10:38:49;;;;;;;20.63;4.30;;;16.30;69.00;;;;;;4205073;27;20075;-51
2024/01/24 10:41:32;;;;;;;20.05;4.20;;;16.30;69.90;;;;;;4204644;28;20596;-50
2024/01/24 10:44:19;;;;;;;19.58;4.25;;;16.30;69.30;;;;;;4203761;28;20058;-50
2024/01/24 10:47:02;;;;;;;19.70;4.80;;;16.40;70.00;;;;;;4217347;27;20047;-50
2024/01/24 10:49:45;;;;;;;19.83;5.47;;;16.50;69.10;;;;;;4221186;27;20402;-62
2024/01/24 10:52:27;;;;;;;24.50;5.22;;;16.50;69.00;;;;;;4222465;27;20051;-62
2024/01/24 10:55:12;;;;;;;23.15;5.10;;;16.50;68.60;;;;;;4221945;27;20066;-62
2024/01/24 10:57:54;;;;;;;22.75;4.97;;;16.60;68.10;;;;;;4203905;28;20533;-48
2024/01/24 11:00:36;;;;;;;22.10;4.88;;;16.60;68.00;;;;;;4204526;28;20106;-49
2024/01/24 11:03:19;;;;;;;14.52;4.38;;;16.70;68.10;;;;;;4204204;28;20047;-52
2024/01/24 11:06:05;;;;;;;23.98;4.43;;;16.70;68.20;;;;;;4208169;27;20136;-49
2024/01/24 11:08:52;;;;;;;22.98;5.32;;;16.80;67.90;;;;;;4221269;27;20197;-49
2024/01/24 11:11:36;;;;;;;23.77;5.15;;;16.80;67.80;;;;;;4221938;27;20070;-62
2024/01/24 11:14:29;;;;;;;24.65;5.97;;;16.70;67.40;;;;;;4221820;27;20059;-62
2024/01/24 11:17:10;;;;;;;25.70;4.70;;;16.70;67.10;;;;;;4205617;28;20092;-60
2024/01/24 11:19:52;;;;;;;27.88;5.00;;;16.70;67.40;;;;;;4204458;28;20201;-62
2024/01/24 11:22:33;;;;;;;16.45;4.03;;;16.70;67.40;;;;;;4204785;28;20051;-62
2024/01/24 11:25:14;;;;;;;20.80;4.60;;;16.60;67.80;;;;;;4204385;28;20096;-63
2024/01/24 11:27:57;;;;;;;;;;;16.50;67.90;;;;;;4204742;28;20506;-63
2024/01/24 11:30:39;;;;;;;22.58;4.93;;;16.50;68.10;;;;;;4204946;28;19933;-49
2024/01/24 11:33:20;;;;;;;18.98;3.83;;;16.60;68.30;;;;;;4204012;28;20078;-50
2024/01/24 11:36:03;;;;;;;15.35;3.95;;;16.60;68.10;;;;;;4205670;28;20047;-50
2024/01/24 11:38:45;;;;;;;19.65;4.57;;;16.60;67.50;;;;;;4188203;27;20055;-62
2024/01/24 11:41:27;;;;;;;19.70;5.18;;;16.70;67.80;;;;;;4187626;28;20073;-61
2024/01/24 11:44:11;;;;;;;;;;;16.80;67.50;;;;;;4187894;27;20059;-51
2024/01/24 11:46:52;;;;;;;28.92;5.13;;;16.90;67.20;;;;;;4217296;27;19935;-52
2024/01/24 11:49:33;;;;;;;19.08;3.78;;;17.00;67.00;;;;;;4221193;27;20096;-51
2024/01/24 11:52:21;;;;;;;16.80;4.00;;;17.10;66.60;;;;;;4219622;27;20044;-62
2024/01/24 11:55:01;;;;;;;19.33;4.47;;;17.10;67.20;;;;;;4218190;27;20042;-62
2024/01/24 11:57:43;;;;;;;20.65;4.28;;;17.10;66.10;;;;;;4203044;27;20486;-51
2024/01/24 12:00:24;;;;;;;17.98;4.43;;;17.10;66.30;;;;;;4202616;27;20059;-61
2024/01/24 12:03:06;;;;;;;14.90;3.47;;;17.10;66.40;;;;;;4220014;27;20054;-62
2024/01/24 12:05:47;;;;;;;27.38;4.82;;;17.10;66.60;;;;;;4226663;27;20505;-61
2024/01/24 12:08:30;;;;;;;30.67;5.40;;;17.10;66.30;;;;;;4237924;27;20092;-49
2024/01/24 12:11:11;;;;;;;18.30;4.80;;;17.10;66.00;;;;;;4237652;27;20058;-49
2024/01/24 12:13:52;;;;;;;20.23;4.32;;;17.10;65.80;;;;;;4237414;27;20489;-49
2024/01/24 12:16:33;;;;;;;19.52;4.57;;;17.10;66.00;;;;;;4238141;27;20512;-62
2024/01/24 12:19:15;;;;;;;20.55;3.78;;;17.10;66.10;;;;;;4206173;27;20100;-51
2024/01/24 12:21:57;;;;;;;19.50;4.75;;;17.10;65.90;;;;;;4220699;27;20188;-49
2024/01/24 12:24:40;;;;;;;;;;;17.20;65.70;;;;;;4220986;27;20494;-63
2024/01/24 12:27:21;;;;;;;17.00;4.05;;;17.20;65.70;;;;;;4220977;27;19927;-62
2024/01/24 12:30:02;;;;;;;22.33;3.92;;;17.10;65.60;;;;;;4220790;27;20059;-50
2024/01/24 12:32:43;;;;;;;22.77;4.53;;;17.10;65.50;;;;;;4214627;27;20058;-49
2024/01/24 12:35:25;;;;;;;20.27;4.45;;;17.10;65.90;;;;;;4220645;27;20054;-50
2024/01/24 12:38:06;;;;;;;;;;;17.10;66.10;;;;;;4218719;27;20189;-52
2024/01/24 12:40:52;;;;;;;19.02;4.13;;;17.10;65.90;;;;;;4202853;27;20390;-52
2024/01/24 12:43:33;;;;;;;18.80;4.85;;;17.10;65.80;;;;;;4187344;28;20122;-62
2024/01/24 12:46:14;;;;;;;21.55;3.80;;;17.10;65.60;;;;;;4186814;28;20784;-62
2024/01/24 12:48:56;;;;;;;20.08;4.60;;;17.20;65.50;;;;;;4186824;28;20075;-62
2024/01/24 12:51:38;;;;;;;17.58;4.97;;;17.10;65.10;;;;;;4187834;27;20102;-60
2024/01/24 12:54:21;;;;;;;21.73;3.85;;;17.10;65.50;;;;;;4188185;27;20197;-62
2024/01/24 12:57:04;;;;;;;20.52;4.45;;;17.10;65.20;;;;;;4187842;27;20197;-62
2024/01/24 12:59:45;;;;;;;22.13;4.43;;;17.10;65.30;;;;;;4186497;28;20056;-62
2024/01/24 13:02:26;;;;;;;16.38;4.78;;;17.00;65.20;;;;;;4186681;28;20046;-62
2024/01/24 13:05:09;;;;;;;22.60;5.30;;;17.00;65.40;;;;;;4203521;28;20059;-63
2024/01/24 13:07:50;;;;;;;21.73;4.15;;;17.00;65.50;;;;;;4186352;28;20075;-62
2024/01/24 13:10:32;;;;;;;31.45;5.03;;;17.00;65.30;;;;;;4206443;28;20055;-62
2024/01/24 13:13:16;;;;;;;20.35;4.80;;;17.00;65.60;;;;;;4207182;28;20427;-49
2024/01/24 13:15:58;;;;;;;18.10;4.43;;;16.90;65.40;;;;;;4206736;28;20554;-51
2024/01/24 13:18:39;;;;;;;19.48;5.25;;;16.90;65.30;;;;;;4206591;28;20089;-52
2024/01/24 13:21:20;;;;;;;24.33;4.68;;;16.80;65.30;;;;;;4206791;28;20051;-62
2024/01/24 13:24:03;;;;;;;21.33;5.07;;;16.80;65.60;;;;;;4206324;28;20074;-50
2024/01/24 13:26:44;;;;;;;20.42;3.83;;;16.70;65.90;;;;;;4205155;28;20166;-49
2024/01/24 13:29:26;;;;;;;9.88;3.28;;;16.80;66.30;;;;;;4205921;28;20169;-51
2024/01/24 13:32:07;;;;;;;23.98;5.85;;;16.70;66.40;;;;;;4206318;28;20502;-63
2024/01/24 13:34:49;;;;;;;24.77;4.90;;;16.80;66.70;;;;;;4205862;28;20798;-49
2024/01/24 13:37:30;;;;;;;26.50;5.15;;;16.80;66.00;;;;;;4205887;28;20516;-48
2024/01/24 13:40:11;;;;;;;16.83;3.47;;;16.90;66.00;;;;;;4206297;28;20551;-49
2024/01/24 13:42:52;;;;;;;23.95;5.45;;;16.90;66.00;;;;;;4204788;28;20062;-49
2024/01/24 13:45:35;;;;;;;21.60;5.90;;;16.90;65.80;;;;;;4217093;27;20180;-52
2024/01/24 13:48:18;;;;;;;25.38;6.05;;;16.90;65.80;;;;;;4223149;27;20051;-49
2024/01/24 13:50:59;;;;;;;23.85;5.68;;;16.90;65.90;;;;;;4221683;27;20070;-49
2024/01/24 13:53:40;;;;;;;23.85;4.57;;;16.80;65.70;;;;;;4223322;27;20055;-51
2024/01/24 13:56:21;;;;;;;20.30;4.30;;;16.80;65.80;;;;;;4222492;27;20493;-62